Aérodrome :
LOGIN :

S'inscrire | Disclaimer

   EN    FR    IT 

 










Légende :    VFR   VFR Marginal   IFR   IFR Intensif   IFR Très Intensif
Visi : 
Plafond : 
>= 8 km
>= 3000ft
5 à 8 km
1000 à 3000 ft
1500m à 5 km
500 à 1000 ft
800 à 1500m
200 à 500 ft
< 800m
< 200 ft
Symboles :   Orages  Brouillard  Fortes neiges  Fortes précipitations  Vent > 20 kt
SIGMETs :   Divers  Orages  Givrage  Turbulence  Onde Orograph.  Cendres Volcan.






- Altitude de l'aérodrome : 1521 ft
- Code IATA : NCY


LFLP - Annecy

DERNIER METAR :
  • 301700Z AUTO 03005KT 350V060 9999 VCTS FEW029/// OVC049/// ///CB 18/17 Q1013 TEMPO VRB15G35KT 3000 TSRA

METARs EXPIRÉS :
  • 301630Z AUTO 03006KT 340V070 9999 -TSRA FEW007/// BKN052/// BKN068/// ///CB 18/16 Q1013 TEMPO VRB15G35KT 3000 TSRA
  • 301600Z AUTO 17008KT 120V210 1400 1200 R04/1500D +TSRA BR FEW021/// SCT038/// BKN058/// ///CB 20/18 Q1013 TEMPO VRB20G40KT
  • 301530Z AUTO 22004KT 160V260 9000 3400 TSRA FEW037/// SCT086/// OVC110/// ///CB 21/19 Q1013 TEMPO VRB20G40KT 1000 +TSRAGR
  • 301500Z AUTO VRB05KT 9999 -TSRA FEW058/// SCT074/// BKN100/// ///CB 22/19 Q1012 TEMPO VRB20G40KT 1000 +TSRAGR
  • 301430Z AUTO 23006KT 9999 -RA ///CB 24/18 Q1013 TEMPO VRB20G40KT 1000 +TSRAGR
  • 301400Z AUTO 23010KT 9999 ///TCU 26/17 Q1013 TEMPO VRB15G35KT 3000 TSRA BKN070CB

TAF TAF LFLP
Valide du 30 à 15h jusqu'au 31 à 15h UTC


301400Z 3015/3115 22007KT CAVOK
PROB40
TEMPO 3015/3019 VRB15G35KT 3000 TSRA BKN070CB
PROB30
TEMPO 3016/3018 VRB20G40KT 1000 +TSRAGR BKN040CB
BECMG 3019/3021 VRB03KT BKN050
TEMPO 3111/3113 FEW080CB
PROB40
TEMPO 3113/3115 -SHRA FEW070CB SCT075TCU
PROB30
TEMPO 3114/3115 32015G25KT 3000 -TSRA SCT060CB



MET'MAP, la Météo Aéronautique d'un coup d'oeil ! - Copyright ORBIFLY Décembre 2007 - Disclaimer

ORBIFLY MET'MAP TEAM :

Programmation & Développement : Alexandra Zaïnal
Sur une idée originale de : Baudouin d'Aumeries
Assistance à la programmation : Marc-Olivier Méhu
Soutien technique & logistique : Manuel Goepfert

Contact : metmap@orbifly.com




SOURCES & CREDITS :

   NOAA